createdAt,value
2023-04-02T00:01:48.343Z,3.02
2023-04-02T00:05:51.383Z,3.01
2023-04-02T00:09:32.814Z,3.00
2023-04-02T00:13:23.602Z,3.00
2023-04-02T00:16:51.542Z,3.00
2023-04-02T00:20:20.123Z,2.98
2023-04-02T00:23:47.656Z,2.97
2023-04-02T00:27:16.863Z,2.97
2023-04-02T00:30:52.723Z,2.96
2023-04-02T00:34:22.358Z,2.96
2023-04-02T00:37:47.763Z,2.96
2023-04-02T00:41:20.326Z,2.95
2023-04-02T00:44:50.063Z,2.94
2023-04-02T00:48:32.505Z,2.93
2023-04-02T00:52:03.024Z,2.92
2023-04-02T00:55:36.320Z,2.92
2023-04-02T00:59:04.094Z,2.93
2023-04-02T01:02:33.814Z,2.94
2023-04-02T01:06:10.820Z,2.93
2023-04-02T01:09:51.703Z,2.94
2023-04-02T01:13:29.821Z,2.93
2023-04-02T01:17:03.799Z,2.93
2023-04-02T01:21:04.192Z,2.93
2023-04-02T01:24:37.246Z,2.93
2023-04-02T01:28:11.908Z,2.92
2023-04-02T01:31:41.553Z,2.91
2023-04-02T01:35:10.785Z,2.91
2023-04-02T01:38:45.318Z,2.90
2023-04-02T01:42:20.071Z,2.89
2023-04-02T01:45:47.558Z,2.89
2023-04-02T01:49:20.127Z,2.89
2023-04-02T01:52:50.801Z,2.88
2023-04-02T01:56:18.714Z,2.87
2023-04-02T01:59:47.095Z,2.87
2023-04-02T02:03:17.139Z,2.86
2023-04-02T02:06:45.722Z,2.86
2023-04-02T02:10:18.269Z,2.86
2023-04-02T02:13:53.148Z,2.86
2023-04-02T02:17:26.638Z,2.87
2023-04-02T02:20:54.335Z,2.87
2023-04-02T02:24:24.708Z,2.88
2023-04-02T02:28:00.366Z,2.88
2023-04-02T02:31:33.282Z,2.88
2023-04-02T02:35:09.640Z,2.89
2023-04-02T02:38:48.591Z,2.89
2023-04-02T02:42:29.958Z,2.89
2023-04-02T02:45:59.482Z,2.88
2023-04-02T02:49:27.336Z,2.88
2023-04-02T02:52:56.862Z,2.87
2023-04-02T02:56:26.757Z,2.87
2023-04-02T02:59:56.246Z,2.87
2023-04-02T03:03:27.480Z,2.87
2023-04-02T03:07:00.171Z,2.86
2023-04-02T03:10:35.421Z,2.85
2023-04-02T03:14:11.623Z,2.84
2023-04-02T03:17:44.634Z,2.82
2023-04-02T03:21:22.904Z,2.80
2023-04-02T03:24:57.794Z,2.79
2023-04-02T03:28:28.818Z,2.76
2023-04-02T03:32:02.748Z,2.73
2023-04-02T03:35:36.825Z,2.71
2023-04-02T03:39:13.805Z,2.67
2023-04-02T03:42:46.809Z,2.64
2023-04-02T03:46:27.295Z,2.61
2023-04-02T03:50:01.706Z,2.57
2023-04-02T03:53:32.345Z,2.54
2023-04-02T03:57:00.889Z,2.53
2023-04-02T04:00:36.486Z,2.52
2023-04-02T04:04:11.712Z,2.52
2023-04-02T04:07:42.879Z,2.53
2023-04-02T04:11:15.885Z,2.54
2023-04-02T04:14:50.583Z,2.55
2023-04-02T04:18:24.383Z,2.56
2023-04-02T04:21:54.017Z,2.57
2023-04-02T04:25:33.872Z,2.58
2023-04-02T04:29:15.699Z,2.58
2023-04-02T04:32:50.575Z,2.58
2023-04-02T04:36:28.722Z,2.57
2023-04-02T04:40:18.895Z,2.56
2023-04-02T04:43:51.629Z,2.58
2023-04-02T04:47:23.845Z,2.59
2023-04-02T04:50:55.377Z,2.59
2023-04-02T04:54:26.843Z,2.60
2023-04-02T04:58:00.682Z,2.61
2023-04-02T05:01:35.331Z,2.62
2023-04-02T05:05:05.521Z,2.63
2023-04-02T05:08:39.150Z,2.65
2023-04-02T05:12:18.366Z,2.65
2023-04-02T05:15:54.909Z,2.66
2023-04-02T05:19:31.285Z,2.68
2023-04-02T05:23:05.135Z,2.69
2023-04-02T05:26:40.259Z,2.69
2023-04-02T05:30:16.007Z,2.69
2023-04-02T05:33:49.859Z,2.71
2023-04-02T05:37:21.280Z,2.72
2023-04-02T05:40:53.623Z,2.72
2023-04-02T05:44:27.404Z,2.73
2023-04-02T05:48:01.967Z,2.72
2023-04-02T05:51:45.359Z,2.69
2023-04-02T05:55:34.746Z,2.69
2023-04-02T05:59:08.467Z,2.72
2023-04-02T06:02:41.606Z,2.74
2023-04-02T06:06:21.975Z,2.76
2023-04-02T06:09:54.600Z,2.80
2023-04-02T06:13:23.338Z,2.82
2023-04-02T06:16:52.258Z,2.83
2023-04-02T06:20:22.315Z,2.85
2023-04-02T06:23:50.249Z,2.89
2023-04-02T06:27:22.805Z,2.91
2023-04-02T06:30:53.023Z,2.90
2023-04-02T06:34:24.627Z,2.88
2023-04-02T06:38:00.763Z,2.88
2023-04-02T06:41:30.294Z,2.88
2023-04-02T06:45:24.496Z,2.92
2023-04-02T06:49:20.671Z,2.95
2023-04-02T06:52:53.321Z,3.01
2023-04-02T06:56:28.330Z,3.09
2023-04-02T06:59:55.895Z,3.14
2023-04-02T07:03:27.712Z,3.14
2023-04-02T07:06:56.896Z,3.14
2023-04-02T07:10:27.469Z,3.15
2023-04-02T07:13:54.782Z,3.13
2023-04-02T07:17:28.716Z,3.10
2023-04-02T07:20:56.797Z,3.07
2023-04-02T07:24:24.977Z,3.09
2023-04-02T07:27:53.344Z,3.08
2023-04-02T07:31:24.305Z,3.12
2023-04-02T07:34:52.374Z,3.19
2023-04-02T07:38:19.725Z,3.24
2023-04-02T07:41:57.618Z,3.27
2023-04-02T07:45:24.934Z,3.30
2023-04-02T07:48:52.238Z,3.30
2023-04-02T07:52:19.592Z,3.26
2023-04-02T07:55:46.822Z,3.28
2023-04-02T07:59:14.329Z,3.31
2023-04-02T08:02:43.086Z,3.34
2023-04-02T08:06:12.186Z,3.34
2023-04-02T08:09:39.213Z,3.38
2023-04-02T08:13:06.523Z,3.42
2023-04-02T08:16:47.712Z,3.43
2023-04-02T08:20:19.150Z,3.48
2023-04-02T08:23:46.789Z,3.59
2023-04-02T08:27:16.808Z,3.71
2023-04-02T08:30:42.995Z,3.80
2023-04-02T08:34:11.023Z,3.86
2023-04-02T08:37:38.508Z,3.92
2023-04-02T08:41:10.875Z,3.97
2023-04-02T08:44:53.172Z,4.01
2023-04-02T08:48:20.648Z,4.00
2023-04-02T08:51:49.108Z,4.00
2023-04-02T08:55:30.135Z,4.02
2023-04-02T08:59:00.851Z,4.05
2023-04-02T09:02:37.036Z,4.06
2023-04-02T09:06:06.459Z,4.06
2023-04-02T09:09:39.196Z,4.13
2023-04-02T09:13:15.478Z,4.22
2023-04-02T09:16:47.690Z,4.36
2023-04-02T09:20:21.454Z,4.56
2023-04-02T09:23:48.884Z,4.74
2023-04-02T09:27:22.148Z,4.79
2023-04-02T09:31:02.057Z,4.85
2023-04-02T09:34:35.491Z,4.91
2023-04-02T09:38:22.152Z,4.90
2023-04-02T09:42:04.551Z,4.87
2023-04-02T09:45:33.191Z,4.90
2023-04-02T09:49:02.520Z,5.01
2023-04-02T09:52:32.793Z,5.10
2023-04-02T09:56:15.701Z,5.06
2023-04-02T09:59:42.753Z,5.08
2023-04-02T10:03:24.921Z,5.21
2023-04-02T10:06:53.523Z,5.35
2023-04-02T10:10:26.366Z,5.39
2023-04-02T10:13:57.718Z,5.55
2023-04-02T10:17:28.980Z,5.70
2023-04-02T10:20:58.655Z,5.81
2023-04-02T10:24:28.791Z,5.94
2023-04-02T10:28:07.129Z,6.11
2023-04-02T10:31:41.352Z,6.23
2023-04-02T10:35:17.932Z,6.23
2023-04-02T10:38:52.554Z,6.21
2023-04-02T10:42:26.915Z,6.23
2023-04-02T10:46:01.830Z,6.23
2023-04-02T10:49:37.781Z,6.13
2023-04-02T10:53:12.618Z,6.01
2023-04-02T10:56:50.129Z,5.92
2023-04-02T11:00:23.700Z,5.86
2023-04-02T11:03:58.193Z,5.85
2023-04-02T11:07:29.584Z,5.81
2023-04-02T11:11:03.981Z,5.79
2023-04-02T11:14:33.345Z,5.78
2023-04-02T11:18:01.200Z,5.84
2023-04-02T11:21:58.044Z,5.93
2023-04-02T11:25:27.637Z,6.01
2023-04-02T11:29:08.139Z,6.07
2023-04-02T11:32:39.517Z,6.01
2023-04-02T11:36:28.278Z,5.98
2023-04-02T11:39:57.602Z,5.89
2023-04-02T11:44:01.010Z,5.79
2023-04-02T11:47:29.769Z,5.69
2023-04-02T11:50:57.683Z,5.62
2023-04-02T11:54:29.560Z,5.56
2023-04-02T11:58:35.187Z,5.54
2023-04-02T12:02:14.559Z,5.53
2023-04-02T12:05:50.989Z,5.63
2023-04-02T12:09:23.695Z,5.71
2023-04-02T12:12:51.593Z,5.79
2023-04-02T12:16:19.320Z,5.87
2023-04-02T12:19:51.132Z,5.95
2023-04-02T12:23:23.006Z,6.03
2023-04-02T12:26:50.417Z,6.12
2023-04-02T12:30:24.122Z,6.18
2023-04-02T12:33:54.565Z,6.18
2023-04-02T12:37:26.401Z,6.13
2023-04-02T12:40:58.738Z,6.07
2023-04-02T12:44:27.606Z,5.98
2023-04-02T12:47:54.951Z,5.97
2023-04-02T12:51:22.457Z,6.00
2023-04-02T12:54:52.693Z,6.09
2023-04-02T12:58:29.104Z,6.19
2023-04-02T13:02:00.807Z,6.25
2023-04-02T13:05:39.638Z,6.31
2023-04-02T13:09:09.091Z,6.38
2023-04-02T13:12:38.249Z,6.45
2023-04-02T13:16:21.028Z,6.57
2023-04-02T13:19:48.187Z,6.64
2023-04-02T13:23:36.148Z,6.68
2023-04-02T13:27:04.844Z,6.69
2023-04-02T13:30:32.275Z,6.71
2023-04-02T13:33:59.832Z,6.67
2023-04-02T13:37:27.007Z,6.57
2023-04-02T13:40:54.142Z,6.51
2023-04-02T13:44:27.301Z,6.46
2023-04-02T13:47:54.486Z,6.43
2023-04-02T13:51:24.018Z,6.45
2023-04-02T13:54:54.160Z,6.41
2023-04-02T13:58:21.289Z,6.45
2023-04-02T14:01:50.510Z,6.47
2023-04-02T14:05:32.518Z,6.50
2023-04-02T14:09:12.306Z,6.47
2023-04-02T14:12:50.056Z,6.43
2023-04-02T14:16:35.542Z,6.45
2023-04-02T14:20:23.825Z,6.44
2023-04-02T14:24:09.884Z,6.42
2023-04-02T14:27:47.245Z,6.41
2023-04-02T14:31:22.954Z,6.43
2023-04-02T14:34:57.848Z,6.49
2023-04-02T14:38:31.730Z,6.49
2023-04-02T14:42:02.638Z,6.48
2023-04-02T14:45:53.488Z,6.50
2023-04-02T14:49:26.311Z,6.52
2023-04-02T14:52:58.116Z,6.56
2023-04-02T14:56:27.016Z,6.55
2023-04-02T15:00:02.069Z,6.56
2023-04-02T15:03:35.833Z,6.57
2023-04-02T15:07:08.947Z,6.60
2023-04-02T15:10:42.307Z,6.64
2023-04-02T15:14:17.606Z,6.73
2023-04-02T15:17:45.024Z,6.75
2023-04-02T15:21:36.887Z,6.78
2023-04-02T15:25:18.502Z,6.78
2023-04-02T15:28:47.808Z,6.78
2023-04-02T15:32:27.395Z,6.77
2023-04-02T15:36:02.429Z,6.76
2023-04-02T15:39:40.164Z,6.75
2023-04-02T15:43:17.818Z,6.75
2023-04-02T15:46:55.767Z,6.75
2023-04-02T15:50:44.954Z,6.75
2023-04-02T15:54:26.004Z,6.74
2023-04-02T15:58:40.595Z,6.74
2023-04-02T16:02:31.171Z,6.72
2023-04-02T16:06:17.247Z,6.67
2023-04-02T16:09:52.653Z,6.60
2023-04-02T16:13:27.257Z,6.62
2023-04-02T16:16:57.132Z,6.65
2023-04-02T16:20:30.031Z,6.60
2023-04-02T16:23:57.131Z,6.51
2023-04-02T16:27:32.994Z,6.40
2023-04-02T16:31:08.312Z,6.29
2023-04-02T16:34:43.837Z,6.22
2023-04-02T16:38:20.764Z,6.21
2023-04-02T16:42:00.548Z,6.21
2023-04-02T16:45:36.571Z,6.18
2023-04-02T16:49:09.412Z,6.13
2023-04-02T16:52:46.801Z,6.07
2023-04-02T16:56:35.088Z,6.01
2023-04-02T17:00:18.332Z,5.92
2023-04-02T17:04:08.826Z,5.84
2023-04-02T17:07:42.682Z,5.75
2023-04-02T17:11:13.628Z,5.64
2023-04-02T17:14:48.409Z,5.53
2023-04-02T17:18:20.480Z,5.41
2023-04-02T17:21:50.202Z,5.29
2023-04-02T17:25:22.827Z,5.16
2023-04-02T17:28:51.707Z,5.00
2023-04-02T17:32:24.729Z,4.88
2023-04-02T17:36:06.940Z,4.77
2023-04-02T17:39:42.694Z,4.64
2023-04-02T17:43:17.486Z,4.55
2023-04-02T17:46:53.924Z,4.44
2023-04-02T17:50:52.179Z,4.37
2023-04-02T17:54:34.804Z,4.29
2023-04-02T17:58:13.515Z,4.20
2023-04-02T18:01:50.114Z,4.10
2023-04-02T18:05:25.155Z,4.00
2023-04-02T18:09:06.199Z,3.91
2023-04-02T18:12:50.171Z,3.80
2023-04-02T18:16:43.365Z,3.68
2023-04-02T18:20:23.133Z,3.55
2023-04-02T18:24:03.876Z,3.47
2023-04-02T18:27:55.144Z,3.39
2023-04-02T18:31:34.248Z,3.33
2023-04-02T18:35:14.866Z,3.26
2023-04-02T18:38:49.097Z,3.20
2023-04-02T18:42:30.301Z,3.14
2023-04-02T18:46:05.684Z,3.07
2023-04-02T18:49:40.760Z,3.00
2023-04-02T18:53:14.205Z,2.95
2023-04-02T18:56:42.769Z,2.90
2023-04-02T19:00:25.488Z,2.83
2023-04-02T19:03:56.339Z,2.76
2023-04-02T19:07:24.542Z,2.73
2023-04-02T19:10:55.801Z,2.68
2023-04-02T19:14:24.454Z,2.62
2023-04-02T19:18:01.779Z,2.58
2023-04-02T19:21:40.193Z,2.51
2023-04-02T19:25:19.550Z,2.45
2023-04-02T19:28:55.469Z,2.44
2023-04-02T19:32:28.800Z,2.37
2023-04-02T19:36:00.211Z,2.30
2023-04-02T19:39:53.602Z,2.24
2023-04-02T19:43:20.939Z,2.19
2023-04-02T19:46:51.663Z,2.16
2023-04-02T19:50:19.196Z,2.11
2023-04-02T19:53:46.400Z,2.02
2023-04-02T19:57:16.327Z,1.97
2023-04-02T20:00:43.440Z,1.93
2023-04-02T20:04:10.763Z,1.91
2023-04-02T20:07:37.900Z,1.88
2023-04-02T20:11:06.004Z,1.83
2023-04-02T20:14:33.200Z,1.79
2023-04-02T20:18:00.476Z,1.73
2023-04-02T20:21:27.786Z,1.69
2023-04-02T20:24:54.890Z,1.62
2023-04-02T20:28:22.076Z,1.55
2023-04-02T20:31:49.156Z,1.52
2023-04-02T20:35:16.298Z,1.49
2023-04-02T20:38:43.476Z,1.45
2023-04-02T20:42:10.895Z,1.41
2023-04-02T20:45:38.927Z,1.34
2023-04-02T20:49:06.380Z,1.27
2023-04-02T20:52:35.387Z,1.21
2023-04-02T20:56:07.189Z,1.18
2023-04-02T20:59:34.246Z,1.14
2023-04-02T21:03:02.036Z,1.13
2023-04-02T21:06:32.155Z,1.11
2023-04-02T21:09:59.208Z,1.07
2023-04-02T21:13:29.475Z,1.00
2023-04-02T21:16:56.797Z,0.96
2023-04-02T21:20:23.969Z,0.93
2023-04-02T21:23:54.702Z,0.90
2023-04-02T21:27:25.800Z,0.90
2023-04-02T21:30:53.827Z,0.88
2023-04-02T21:34:20.995Z,0.89
2023-04-02T21:37:48.429Z,0.86
2023-04-02T21:41:17.968Z,0.81
2023-04-02T21:44:43.445Z,0.75
2023-04-02T21:48:10.677Z,0.67
2023-04-02T21:51:39.103Z,0.60
2023-04-02T21:55:06.900Z,0.53
2023-04-02T21:58:34.033Z,0.47
2023-04-02T22:02:01.177Z,0.45
2023-04-02T22:05:31.237Z,0.45
2023-04-02T22:09:00.153Z,0.42
2023-04-02T22:13:19.429Z,0.39
2023-04-02T22:17:05.646Z,0.37
2023-04-02T22:20:32.816Z,0.34
2023-04-02T22:24:01.998Z,0.31
2023-04-02T22:27:29.220Z,0.25
2023-04-02T22:30:57.086Z,0.19
2023-04-02T22:34:24.190Z,0.13
2023-04-02T22:37:51.295Z,0.07
2023-04-02T22:41:21.310Z,0.04
2023-04-02T22:44:49.562Z,0.01
2023-04-02T22:48:16.625Z,-0.02
2023-04-02T22:51:44.567Z,-0.07
2023-04-02T22:55:15.147Z,-0.13
2023-04-02T22:58:42.498Z,-0.17
2023-04-02T23:02:09.579Z,-0.21
2023-04-02T23:05:36.764Z,-0.24
2023-04-02T23:09:04.212Z,-0.26
2023-04-02T23:12:31.932Z,-0.25
2023-04-02T23:15:59.196Z,-0.29
2023-04-02T23:19:26.266Z,-0.33
2023-04-02T23:22:53.404Z,-0.37
2023-04-02T23:26:22.410Z,-0.41
2023-04-02T23:29:49.704Z,-0.45
2023-04-02T23:33:16.697Z,-0.48
2023-04-02T23:36:43.885Z,-0.50
2023-04-02T23:40:12.884Z,-0.51
2023-04-02T23:43:40.509Z,-0.51
2023-04-02T23:47:07.765Z,-0.52
2023-04-02T23:50:35.378Z,-0.54
2023-04-02T23:54:02.798Z,-0.56
2023-04-02T23:57:30.160Z,-0.58
